sensor_id;sensor_type;location;lat;lon;timestamp;pressure;altitude;pressure_sealevel;temperature
74043;BMP280;62384;53.600;10.040;2022-12-19T00:01:09;-9219.09;;;-1.20
74043;BMP280;62384;53.600;10.040;2022-12-19T00:03:45;-9219.34;;;-1.19
74043;BMP280;62384;53.600;10.040;2022-12-19T00:06:10;-9216.19;;;-1.31
74043;BMP280;62384;53.600;10.040;2022-12-19T00:08:41;-9218.03;;;-1.24
74043;BMP280;62384;53.600;10.040;2022-12-19T00:11:09;-9217.78;;;-1.25
74043;BMP280;62384;53.600;10.040;2022-12-19T00:13:37;-9217.50;;;-1.26
74043;BMP280;62384;53.600;10.040;2022-12-19T00:16:04;-9218.97;;;-1.20
74043;BMP280;62384;53.600;10.040;2022-12-19T00:18:29;-9217.66;;;-1.25
74043;BMP280;62384;53.600;10.040;2022-12-19T00:20:59;-9220.78;;;-1.13
74043;BMP280;62384;53.600;10.040;2022-12-19T00:23:27;-9219.63;;;-1.18
74043;BMP280;62384;53.600;10.040;2022-12-19T00:26:06;-9219.34;;;-1.19
74043;BMP280;62384;53.600;10.040;2022-12-19T00:28:31;-9218.97;;;-1.20
74043;BMP280;62384;53.600;10.040;2022-12-19T00:30:59;-9217.78;;;-1.25
74043;BMP280;62384;53.600;10.040;2022-12-19T00:33:24;-9217.00;;;-1.28
74043;BMP280;62384;53.600;10.040;2022-12-19T00:35:50;-9216.84;;;-1.28
74043;BMP280;62384;53.600;10.040;2022-12-19T00:38:15;-9216.47;;;-1.30
74043;BMP280;62384;53.600;10.040;2022-12-19T00:40:40;-9216.59;;;-1.29
74043;BMP280;62384;53.600;10.040;2022-12-19T00:43:05;-9215.41;;;-1.34
74043;BMP280;62384;53.600;10.040;2022-12-19T00:45:31;-9215.81;;;-1.32
74043;BMP280;62384;53.600;10.040;2022-12-19T00:47:56;-9215.53;;;-1.33
74043;BMP280;62384;53.600;10.040;2022-12-19T00:50:21;-9216.84;;;-1.28
74043;BMP280;62384;53.600;10.040;2022-12-19T00:52:47;-9218.81;;;-1.21
74043;BMP280;62384;53.600;10.040;2022-12-19T00:55:12;-9217.66;;;-1.25
74043;BMP280;62384;53.600;10.040;2022-12-19T00:57:38;-9216.59;;;-1.29
74043;BMP280;62384;53.600;10.040;2022-12-19T01:00:03;-9218.31;;;-1.23
74043;BMP280;62384;53.600;10.040;2022-12-19T01:02:29;-9219.47;;;-1.18
74043;BMP280;62384;53.600;10.040;2022-12-19T01:04:54;-9217.66;;;-1.25
74043;BMP280;62384;53.600;10.040;2022-12-19T01:07:19;-9220.00;;;-1.16
74043;BMP280;62384;53.600;10.040;2022-12-19T01:09:45;-9218.56;;;-1.22
74043;BMP280;62384;53.600;10.040;2022-12-19T01:12:10;-9219.88;;;-1.17
74043;BMP280;62384;53.600;10.040;2022-12-19T01:14:55;-9219.88;;;-1.17
74043;BMP280;62384;53.600;10.040;2022-12-19T01:17:21;-9220.53;;;-1.14
74043;BMP280;62384;53.600;10.040;2022-12-19T01:19:46;-9219.75;;;-1.17
74043;BMP280;62384;53.600;10.040;2022-12-19T01:22:12;-9222.63;;;-1.06
74043;BMP280;62384;53.600;10.040;2022-12-19T01:24:37;-9221.72;;;-1.10
74043;BMP280;62384;53.600;10.040;2022-12-19T01:27:03;-9219.75;;;-1.17
74043;BMP280;62384;53.600;10.040;2022-12-19T01:29:28;-9220.66;;;-1.14
74043;BMP280;62384;53.600;10.040;2022-12-19T01:31:53;-9221.06;;;-1.12
74043;BMP280;62384;53.600;10.040;2022-12-19T01:34:18;-9221.19;;;-1.12
74043;BMP280;62384;53.600;10.040;2022-12-19T01:36:44;-9222.75;;;-1.06
74043;BMP280;62384;53.600;10.040;2022-12-19T01:39:09;-9221.19;;;-1.12
74043;BMP280;62384;53.600;10.040;2022-12-19T01:41:34;-9219.22;;;-1.19
74043;BMP280;62384;53.600;10.040;2022-12-19T01:44:03;-9221.06;;;-1.12
74043;BMP280;62384;53.600;10.040;2022-12-19T01:46:35;-9220.91;;;-1.13
74043;BMP280;62384;53.600;10.040;2022-12-19T01:49:02;-9221.72;;;-1.10
74043;BMP280;62384;53.600;10.040;2022-12-19T01:51:39;-9221.72;;;-1.10
74043;BMP280;62384;53.600;10.040;2022-12-19T01:54:09;-9222.25;;;-1.08
74043;BMP280;62384;53.600;10.040;2022-12-19T01:56:39;-9210.69;;;-1.52
74043;BMP280;62384;53.600;10.040;2022-12-19T01:59:09;-9213.06;;;-1.43
74043;BMP280;62384;53.600;10.040;2022-12-19T02:01:39;-9225.13;;;-0.96
74043;BMP280;62384;53.600;10.040;2022-12-19T02:04:05;-9225.78;;;-0.94
74043;BMP280;62384;53.600;10.040;2022-12-19T02:06:32;-9227.75;;;-0.86
74043;BMP280;62384;53.600;10.040;2022-12-19T02:08:59;-9225.78;;;-0.94
74043;BMP280;62384;53.600;10.040;2022-12-19T02:11:25;-9227.50;;;-0.87
74043;BMP280;62384;53.600;10.040;2022-12-19T02:13:50;-9228.78;;;-0.82
74043;BMP280;62384;53.600;10.040;2022-12-19T02:16:28;-9229.06;;;-0.81
74043;BMP280;62384;53.600;10.040;2022-12-19T02:19:17;-9227.63;;;-0.87
74043;BMP280;62384;53.600;10.040;2022-12-19T02:22:03;-9221.31;;;-1.11
74043;BMP280;62384;53.600;10.040;2022-12-19T02:27:53;-9232.22;;;-0.69
74043;BMP280;62384;53.600;10.040;2022-12-19T02:30:36;-9231.41;;;-0.72
74043;BMP280;62384;53.600;10.040;2022-12-19T02:36:14;-9231.28;;;-0.73
74043;BMP280;62384;53.600;10.040;2022-12-19T02:38:53;-9232.09;;;-0.70
74043;BMP280;62384;53.600;10.040;2022-12-19T02:41:26;-9233.25;;;-0.65
74043;BMP280;62384;53.600;10.040;2022-12-19T02:43:55;-9233.78;;;-0.63
74043;BMP280;62384;53.600;10.040;2022-12-19T02:46:22;-9234.03;;;-0.62
74043;BMP280;62384;53.600;10.040;2022-12-19T02:48:48;-9231.03;;;-0.74
74043;BMP280;62384;53.600;10.040;2022-12-19T02:51:15;-9231.41;;;-0.72
74043;BMP280;62384;53.600;10.040;2022-12-19T02:53:41;-9231.81;;;-0.71
74043;BMP280;62384;53.600;10.040;2022-12-19T02:56:17;-9234.56;;;-0.60
74043;BMP280;62384;53.600;10.040;2022-12-19T02:58:59;-9234.97;;;-0.59
74043;BMP280;62384;53.600;10.040;2022-12-19T03:01:52;-9233.38;;;-0.65
74043;BMP280;62384;53.600;10.040;2022-12-19T03:07:18;-9231.41;;;-0.72
74043;BMP280;62384;53.600;10.040;2022-12-19T03:09:58;-9231.41;;;-0.72
74043;BMP280;62384;53.600;10.040;2022-12-19T03:12:31;-9231.03;;;-0.74
74043;BMP280;62384;53.600;10.040;2022-12-19T03:14:58;-9229.59;;;-0.79
74043;BMP280;62384;53.600;10.040;2022-12-19T03:17:25;-9231.94;;;-0.70
74043;BMP280;62384;53.600;10.040;2022-12-19T03:19:51;-9232.72;;;-0.67
74043;BMP280;62384;53.600;10.040;2022-12-19T03:22:16;-9231.69;;;-0.71
74043;BMP280;62384;53.600;10.040;2022-12-19T03:24:42;-9233.38;;;-0.65
74043;BMP280;62384;53.600;10.040;2022-12-19T03:27:11;-9235.09;;;-0.58
74043;BMP280;62384;53.600;10.040;2022-12-19T03:29:42;-9233.00;;;-0.66
74043;BMP280;62384;53.600;10.040;2022-12-19T03:32:14;-9233.25;;;-0.65
74043;BMP280;62384;53.600;10.040;2022-12-19T03:34:56;-9225.38;;;-0.95
74043;BMP280;62384;53.600;10.040;2022-12-19T03:37:24;-9221.97;;;-1.09
74043;BMP280;62384;53.600;10.040;2022-12-19T03:39:54;-9236.16;;;-0.54
74043;BMP280;62384;53.600;10.040;2022-12-19T03:42:24;-9236.28;;;-0.54
74043;BMP280;62384;53.600;10.040;2022-12-19T03:45:09;-9237.59;;;-0.48
74043;BMP280;62384;53.600;10.040;2022-12-19T03:47:56;-9237.19;;;-0.50
74043;BMP280;62384;53.600;10.040;2022-12-19T03:50:28;-9237.59;;;-0.48
74043;BMP280;62384;53.600;10.040;2022-12-19T03:53:23;-9237.72;;;-0.48
74043;BMP280;62384;53.600;10.040;2022-12-19T03:56:04;-9230.38;;;-0.76
74043;BMP280;62384;53.600;10.040;2022-12-19T03:58:37;-9239.69;;;-0.40
74043;BMP280;62384;53.600;10.040;2022-12-19T04:01:05;-9239.81;;;-0.40
74043;BMP280;62384;53.600;10.040;2022-12-19T04:03:31;-9241.00;;;-0.35
74043;BMP280;62384;53.600;10.040;2022-12-19T04:05:58;-9241.41;;;-0.34
74043;BMP280;62384;53.600;10.040;2022-12-19T04:08:25;-9241.25;;;-0.34
74043;BMP280;62384;53.600;10.040;2022-12-19T04:10:58;-9238.25;;;-0.46
74043;BMP280;62384;53.600;10.040;2022-12-19T04:13:31;-9242.97;;;-0.28
74043;BMP280;62384;53.600;10.040;2022-12-19T04:16:05;-9244.03;;;-0.24
74043;BMP280;62384;53.600;10.040;2022-12-19T04:18:36;-9242.59;;;-0.29
74043;BMP280;62384;53.600;10.040;2022-12-19T04:21:11;-9242.72;;;-0.29
74043;BMP280;62384;53.600;10.040;2022-12-19T04:23:42;-9243.63;;;-0.25
74043;BMP280;62384;53.600;10.040;2022-12-19T04:26:10;-9243.75;;;-0.25
74043;BMP280;62384;53.600;10.040;2022-12-19T04:28:44;-9242.97;;;-0.28
74043;BMP280;62384;53.600;10.040;2022-12-19T04:31:19;-9243.63;;;-0.25
74043;BMP280;62384;53.600;10.040;2022-12-19T04:33:45;-9244.69;;;-0.21
74043;BMP280;62384;53.600;10.040;2022-12-19T04:36:10;-9244.69;;;-0.21
74043;BMP280;62384;53.600;10.040;2022-12-19T04:38:36;-9245.47;;;-0.18
74043;BMP280;62384;53.600;10.040;2022-12-19T04:41:01;-9245.34;;;-0.19
74043;BMP280;62384;53.600;10.040;2022-12-19T04:43:27;-9243.75;;;-0.25
74043;BMP280;62384;53.600;10.040;2022-12-19T04:45:52;-9246.38;;;-0.15
74043;BMP280;62384;53.600;10.040;2022-12-19T04:48:17;-9245.22;;;-0.19
74043;BMP280;62384;53.600;10.040;2022-12-19T04:50:42;-9244.41;;;-0.22
74043;BMP280;62384;53.600;10.040;2022-12-19T04:53:08;-9244.56;;;-0.22
74043;BMP280;62384;53.600;10.040;2022-12-19T04:55:33;-9246.13;;;-0.16
74043;BMP280;62384;53.600;10.040;2022-12-19T04:57:58;-9246.25;;;-0.15
74043;BMP280;62384;53.600;10.040;2022-12-19T05:00:24;-9239.81;;;-0.40
74043;BMP280;62384;53.600;10.040;2022-12-19T05:02:49;-9249.00;;;-0.05
74043;BMP280;62384;53.600;10.040;2022-12-19T05:05:14;-9251.63;;;0.06
74043;BMP280;62384;53.600;10.040;2022-12-19T05:07:40;-9252.56;;;0.09
74043;BMP280;62384;53.600;10.040;2022-12-19T05:10:06;-9254.91;;;0.18
74043;BMP280;62384;53.600;10.040;2022-12-19T05:12:31;-9249.66;;;-0.02
74043;BMP280;62384;53.600;10.040;2022-12-19T05:14:57;-9250.19;;;0.00
74043;BMP280;62384;53.600;10.040;2022-12-19T05:17:22;-9250.59;;;0.02
74043;BMP280;62384;53.600;10.040;2022-12-19T05:19:50;-9251.91;;;0.07
74043;BMP280;62384;53.600;10.040;2022-12-19T05:22:15;-9251.25;;;0.04
74043;BMP280;62384;53.600;10.040;2022-12-19T05:24:41;-9251.91;;;0.07
74043;BMP280;62384;53.600;10.040;2022-12-19T05:27:06;-9252.16;;;0.08
74043;BMP280;62384;53.600;10.040;2022-12-19T05:29:32;-9251.38;;;0.05
74043;BMP280;62384;53.600;10.040;2022-12-19T05:31:58;-9251.13;;;0.04
74043;BMP280;62384;53.600;10.040;2022-12-19T05:34:24;-9251.63;;;0.06
74043;BMP280;62384;53.600;10.040;2022-12-19T05:36:49;-9254.13;;;0.15
74043;BMP280;62384;53.600;10.040;2022-12-19T05:39:15;-9252.44;;;0.09
74043;BMP280;62384;53.600;10.040;2022-12-19T05:41:40;-9256.38;;;0.24
74043;BMP280;62384;53.600;10.040;2022-12-19T05:44:06;-9257.41;;;0.28
74043;BMP280;62384;53.600;10.040;2022-12-19T05:46:31;-9257.56;;;0.28
74043;BMP280;62384;53.600;10.040;2022-12-19T05:48:56;-9257.69;;;0.29
74043;BMP280;62384;53.600;10.040;2022-12-19T05:51:22;-9257.03;;;0.26
74043;BMP280;62384;53.600;10.040;2022-12-19T05:53:47;-9260.81;;;0.41
74043;BMP280;62384;53.600;10.040;2022-12-19T05:56:15;-9260.81;;;0.41
74043;BMP280;62384;53.600;10.040;2022-12-19T05:58:41;-9265.03;;;0.57
74043;BMP280;62384;53.600;10.040;2022-12-19T06:01:10;-9266.34;;;0.62
74043;BMP280;62384;53.600;10.040;2022-12-19T06:03:36;-9257.69;;;0.29
74043;BMP280;62384;53.600;10.040;2022-12-19T06:06:10;-9267.13;;;0.65
74043;BMP280;62384;53.600;10.040;2022-12-19T06:08:36;-9265.16;;;0.58
74043;BMP280;62384;53.600;10.040;2022-12-19T06:11:04;-9268.97;;;0.72
74043;BMP280;62384;53.600;10.040;2022-12-19T06:13:30;-9268.06;;;0.69
74043;BMP280;62384;53.600;10.040;2022-12-19T06:15:59;-9269.88;;;0.76
74043;BMP280;62384;53.600;10.040;2022-12-19T06:18:25;-9268.97;;;0.72
74043;BMP280;62384;53.600;10.040;2022-12-19T06:21:11;-9267.91;;;0.68
74043;BMP280;62384;53.600;10.040;2022-12-19T06:23:39;-9271.19;;;0.81
74043;BMP280;62384;53.600;10.040;2022-12-19T06:26:06;-9273.56;;;0.90
74043;BMP280;62384;53.600;10.040;2022-12-19T06:28:31;-9274.09;;;0.92
74043;BMP280;62384;53.600;10.040;2022-12-19T06:30:58;-9274.47;;;0.93
74043;BMP280;62384;53.600;10.040;2022-12-19T06:33:24;-9275.16;;;0.96
74043;BMP280;62384;53.600;10.040;2022-12-19T06:36:00;-9277.91;;;1.06
74043;BMP280;62384;53.600;10.040;2022-12-19T06:38:31;-9277.50;;;1.05
74043;BMP280;62384;53.600;10.040;2022-12-19T06:40:57;-9277.78;;;1.06
74043;BMP280;62384;53.600;10.040;2022-12-19T06:43:41;-9279.22;;;1.12
74043;BMP280;62384;53.600;10.040;2022-12-19T06:46:07;-9278.81;;;1.10
74043;BMP280;62384;53.600;10.040;2022-12-19T06:48:32;-9278.56;;;1.09
74043;BMP280;62384;53.600;10.040;2022-12-19T06:50:58;-9278.16;;;1.08
74043;BMP280;62384;53.600;10.040;2022-12-19T06:53:23;-9279.88;;;1.14
74043;BMP280;62384;53.600;10.040;2022-12-19T06:55:51;-9275.66;;;0.98
74043;BMP280;62384;53.600;10.040;2022-12-19T06:58:17;-9278.16;;;1.08
74043;BMP280;62384;53.600;10.040;2022-12-19T07:00:42;-9278.03;;;1.07
74043;BMP280;62384;53.600;10.040;2022-12-19T07:03:11;-9279.75;;;1.14
74043;BMP280;62384;53.600;10.040;2022-12-19T07:05:38;-9281.19;;;1.19
74043;BMP280;62384;53.600;10.040;2022-12-19T07:08:04;-9280.25;;;1.16
74043;BMP280;62384;53.600;10.040;2022-12-19T07:10:30;-9279.47;;;1.13
74043;BMP280;62384;53.600;10.040;2022-12-19T07:12:55;-9280.00;;;1.15
74043;BMP280;62384;53.600;10.040;2022-12-19T07:15:21;-9282.63;;;1.25
74043;BMP280;62384;53.600;10.040;2022-12-19T07:17:49;-9282.09;;;1.23
74043;BMP280;62384;53.600;10.040;2022-12-19T07:20:15;-9278.94;;;1.11
74043;BMP280;62384;53.600;10.040;2022-12-19T07:22:41;-9283.28;;;1.27
74043;BMP280;62384;53.600;10.040;2022-12-19T07:25:07;-9286.44;;;1.39
74043;BMP280;62384;53.600;10.040;2022-12-19T07:27:32;-9287.09;;;1.42
74043;BMP280;62384;53.600;10.040;2022-12-19T07:29:58;-9285.38;;;1.35
74043;BMP280;62384;53.600;10.040;2022-12-19T07:32:23;-9285.13;;;1.34
74043;BMP280;62384;53.600;10.040;2022-12-19T07:34:49;-9286.69;;;1.40
74043;BMP280;62384;53.600;10.040;2022-12-19T07:37:14;-9280.13;;;1.15
74043;BMP280;62384;53.600;10.040;2022-12-19T07:39:41;-9290.13;;;1.53
74043;BMP280;62384;53.600;10.040;2022-12-19T07:42:06;-9286.97;;;1.41
74043;BMP280;62384;53.600;10.040;2022-12-19T07:44:32;-9292.09;;;1.61
74043;BMP280;62384;53.600;10.040;2022-12-19T07:46:57;-9292.09;;;1.61
74043;BMP280;62384;53.600;10.040;2022-12-19T07:49:23;-9291.81;;;1.60
74043;BMP280;62384;53.600;10.040;2022-12-19T07:51:51;-9286.16;;;1.38
74043;BMP280;62384;53.600;10.040;2022-12-19T07:54:16;-9291.16;;;1.57
74043;BMP280;62384;53.600;10.040;2022-12-19T07:56:41;-9290.38;;;1.54
74043;BMP280;62384;53.600;10.040;2022-12-19T07:59:07;-9292.22;;;1.62
74043;BMP280;62384;53.600;10.040;2022-12-19T08:01:32;-9294.84;;;1.72
74043;BMP280;62384;53.600;10.040;2022-12-19T08:03:57;-9293.13;;;1.65
74043;BMP280;62384;53.600;10.040;2022-12-19T08:06:25;-9294.44;;;1.70
74043;BMP280;62384;53.600;10.040;2022-12-19T08:08:51;-9294.84;;;1.72
74043;BMP280;62384;53.600;10.040;2022-12-19T08:11:18;-9295.22;;;1.73
74043;BMP280;62384;53.600;10.040;2022-12-19T08:13:50;-9292.22;;;1.62
74043;BMP280;62384;53.600;10.040;2022-12-19T08:16:15;-9292.22;;;1.62
74043;BMP280;62384;53.600;10.040;2022-12-19T08:18:41;-9293.94;;;1.68
74043;BMP280;62384;53.600;10.040;2022-12-19T08:21:08;-9288.53;;;1.47
74043;BMP280;62384;53.600;10.040;2022-12-19T08:23:33;-9291.03;;;1.57
74043;BMP280;62384;53.600;10.040;2022-12-19T08:26:04;-9294.19;;;1.69
74043;BMP280;62384;53.600;10.040;2022-12-19T08:28:35;-9292.22;;;1.62
74043;BMP280;62384;53.600;10.040;2022-12-19T08:31:06;-9294.44;;;1.70
74043;BMP280;62384;53.600;10.040;2022-12-19T08:33:32;-9293.66;;;1.67
74043;BMP280;62384;53.600;10.040;2022-12-19T08:36:02;-9292.22;;;1.62
74043;BMP280;62384;53.600;10.040;2022-12-19T08:38:28;-9296.94;;;1.80
74043;BMP280;62384;53.600;10.040;2022-12-19T08:40:53;-9296.03;;;1.76
74043;BMP280;62384;53.600;10.040;2022-12-19T08:43:21;-9296.56;;;1.78
74043;BMP280;62384;53.600;10.040;2022-12-19T08:45:48;-9296.69;;;1.79
74043;BMP280;62384;53.600;10.040;2022-12-19T08:48:14;-9267.91;;;0.68
74043;BMP280;62384;53.600;10.040;2022-12-19T08:50:48;-9298.50;;;1.86
74043;BMP280;62384;53.600;10.040;2022-12-19T08:53:13;-9297.06;;;1.80
74043;BMP280;62384;53.600;10.040;2022-12-19T08:55:38;-9298.00;;;1.84
74043;BMP280;62384;53.600;10.040;2022-12-19T08:58:05;-9297.88;;;1.83
74043;BMP280;62384;53.600;10.040;2022-12-19T09:00:30;-9297.06;;;1.80
74043;BMP280;62384;53.600;10.040;2022-12-19T09:02:56;-9298.78;;;1.87
74043;BMP280;62384;53.600;10.040;2022-12-19T09:05:21;-9299.69;;;1.90
74043;BMP280;62384;53.600;10.040;2022-12-19T09:07:46;-9299.56;;;1.90
74043;BMP280;62384;53.600;10.040;2022-12-19T09:10:11;-9300.63;;;1.94
74043;BMP280;62384;53.600;10.040;2022-12-19T09:12:41;-9301.16;;;1.96
74043;BMP280;62384;53.600;10.040;2022-12-19T09:15:06;-9301.16;;;1.96
74043;BMP280;62384;53.600;10.040;2022-12-19T09:17:32;-9301.53;;;1.97
74043;BMP280;62384;53.600;10.040;2022-12-19T09:19:57;-9300.50;;;1.93
74043;BMP280;62384;53.600;10.040;2022-12-19T09:22:22;-9299.31;;;1.89
74043;BMP280;62384;53.600;10.040;2022-12-19T09:24:48;-9302.06;;;1.99
74043;BMP280;62384;53.600;10.040;2022-12-19T09:27:13;-9300.50;;;1.93
74043;BMP280;62384;53.600;10.040;2022-12-19T09:29:38;-9299.69;;;1.90
74043;BMP280;62384;53.600;10.040;2022-12-19T09:32:04;-9302.31;;;2.00
74043;BMP280;62384;53.600;10.040;2022-12-19T09:34:32;-9301.94;;;1.99
74043;BMP280;62384;53.600;10.040;2022-12-19T09:37:01;-9302.19;;;2.00
74043;BMP280;62384;53.600;10.040;2022-12-19T09:39:26;-9300.88;;;1.95
74043;BMP280;62384;53.600;10.040;2022-12-19T09:42:13;-9303.63;;;2.05
74043;BMP280;62384;53.600;10.040;2022-12-19T09:45:15;-9303.25;;;2.04
74043;BMP280;62384;53.600;10.040;2022-12-19T09:47:46;-9301.66;;;1.98
74043;BMP280;62384;53.600;10.040;2022-12-19T09:50:27;-9303.91;;;2.06
74043;BMP280;62384;53.600;10.040;2022-12-19T09:53:09;-9305.34;;;2.12
74043;BMP280;62384;53.600;10.040;2022-12-19T09:55:40;-9306.00;;;2.14
74043;BMP280;62384;53.600;10.040;2022-12-19T09:58:10;-9305.47;;;2.12
74043;BMP280;62384;53.600;10.040;2022-12-19T10:00:43;-9307.84;;;2.22
74043;BMP280;62384;53.600;10.040;2022-12-19T10:03:19;-9308.91;;;2.26
74043;BMP280;62384;53.600;10.040;2022-12-19T10:05:51;-9308.09;;;2.23
74043;BMP280;62384;53.600;10.040;2022-12-19T10:08:38;-9307.84;;;2.22
74043;BMP280;62384;53.600;10.040;2022-12-19T10:14:07;-9311.13;;;2.34
74043;BMP280;62384;53.600;10.040;2022-12-19T10:19:37;-9313.38;;;2.43
74043;BMP280;62384;53.600;10.040;2022-12-19T10:22:29;-9314.03;;;2.45
74043;BMP280;62384;53.600;10.040;2022-12-19T10:28:08;-9306.53;;;2.17
74043;BMP280;62384;53.600;10.040;2022-12-19T10:33:31;-9318.75;;;2.63
74043;BMP280;62384;53.600;10.040;2022-12-19T10:36:00;-9316.00;;;2.53
74043;BMP280;62384;53.600;10.040;2022-12-19T10:41:24;-9320.72;;;2.71
74043;BMP280;62384;53.600;10.040;2022-12-19T10:44:07;-9320.19;;;2.69
74043;BMP280;62384;53.600;10.040;2022-12-19T10:46:38;-9320.47;;;2.70
74043;BMP280;62384;53.600;10.040;2022-12-19T10:51:59;-9322.03;;;2.76
74043;BMP280;62384;53.600;10.040;2022-12-19T10:57:27;-9320.72;;;2.71
74043;BMP280;62384;53.600;10.040;2022-12-19T10:59:59;-9322.81;;;2.79
74043;BMP280;62384;53.600;10.040;2022-12-19T11:02:44;-9323.88;;;2.83
74043;BMP280;62384;53.600;10.040;2022-12-19T11:05:45;-9323.88;;;2.83
74043;BMP280;62384;53.600;10.040;2022-12-19T11:08:17;-9325.97;;;2.91
74043;BMP280;62384;53.600;10.040;2022-12-19T11:10:44;-9324.94;;;2.87
74043;BMP280;62384;53.600;10.040;2022-12-19T11:16:04;-9326.91;;;2.95
74043;BMP280;62384;53.600;10.040;2022-12-19T11:21:30;-9329.66;;;3.05
74043;BMP280;62384;53.600;10.040;2022-12-19T11:24:03;-9331.09;;;3.11
74043;BMP280;62384;53.600;10.040;2022-12-19T11:29:45;-9331.91;;;3.14
74043;BMP280;62384;53.600;10.040;2022-12-19T11:35:02;-9332.41;;;3.16
74043;BMP280;62384;53.600;10.040;2022-12-19T11:37:41;-9332.94;;;3.18
74043;BMP280;62384;53.600;10.040;2022-12-19T11:40:14;-9332.28;;;3.15
74043;BMP280;62384;53.600;10.040;2022-12-19T11:42:55;-9334.00;;;3.22
74043;BMP280;62384;53.600;10.040;2022-12-19T11:45:46;-9335.56;;;3.28
74043;BMP280;62384;53.600;10.040;2022-12-19T11:51:20;-9336.50;;;3.32
74043;BMP280;62384;53.600;10.040;2022-12-19T11:54:15;-9337.00;;;3.34
74043;BMP280;62384;53.600;10.040;2022-12-19T11:56:43;-9335.56;;;3.28
74043;BMP280;62384;53.600;10.040;2022-12-19T11:59:18;-9337.53;;;3.36
74043;BMP280;62384;53.600;10.040;2022-12-19T12:04:48;-9340.97;;;3.49
74043;BMP280;62384;53.600;10.040;2022-12-19T12:07:18;-9341.63;;;3.51
74043;BMP280;62384;53.600;10.040;2022-12-19T12:09:54;-9333.34;;;3.19
74043;BMP280;62384;53.600;10.040;2022-12-19T12:12:26;-9343.31;;;3.58
74043;BMP280;62384;53.600;10.040;2022-12-19T12:20:50;-9347.00;;;3.72
74043;BMP280;62384;53.600;10.040;2022-12-19T12:26:56;-9349.63;;;3.82
74043;BMP280;62384;53.600;10.040;2022-12-19T12:37:48;-9352.78;;;3.94
74043;BMP280;62384;53.600;10.040;2022-12-19T12:49:12;-9357.78;;;4.13
74043;BMP280;62384;53.600;10.040;2022-12-19T12:51:11;-9358.56;;;4.16
74043;BMP280;62384;53.600;10.040;2022-12-19T12:53:40;-9358.97;;;4.18
74043;BMP280;62384;53.600;10.040;2022-12-19T12:56:09;-9359.50;;;4.20
74043;BMP280;62384;53.600;10.040;2022-12-19T13:03:43;-9363.03;;;4.33
74043;BMP280;62384;53.600;10.040;2022-12-19T13:06:31;-9363.81;;;4.36
74043;BMP280;62384;53.600;10.040;2022-12-19T13:11:49;-9365.66;;;4.44
74043;BMP280;62384;53.600;10.040;2022-12-19T13:17:06;-9365.81;;;4.44
74043;BMP280;62384;53.600;10.040;2022-12-19T13:19:53;-9370.66;;;4.63
74043;BMP280;62384;53.600;10.040;2022-12-19T13:22:21;-9371.72;;;4.67
74043;BMP280;62384;53.600;10.040;2022-12-19T13:24:52;-9371.84;;;4.67
74043;BMP280;62384;53.600;10.040;2022-12-19T13:32:22;-9372.38;;;4.69
74043;BMP280;62384;53.600;10.040;2022-12-19T13:37:30;-9376.97;;;4.87
74043;BMP280;62384;53.600;10.040;2022-12-19T13:42:26;-9375.66;;;4.82
74043;BMP280;62384;53.600;10.040;2022-12-19T13:45:32;-9380.00;;;4.98
74043;BMP280;62384;53.600;10.040;2022-12-19T13:48:00;-9383.16;;;5.11
74043;BMP280;62384;53.600;10.040;2022-12-19T13:50:36;-9385.91;;;5.21
74043;BMP280;62384;53.600;10.040;2022-12-19T13:53:23;-9385.13;;;5.18
74043;BMP280;62384;53.600;10.040;2022-12-19T13:55:53;-9386.31;;;5.23
74043;BMP280;62384;53.600;10.040;2022-12-19T14:00:46;-9386.19;;;5.22
74043;BMP280;62384;53.600;10.040;2022-12-19T14:03:16;-9388.16;;;5.30
74043;BMP280;62384;53.600;10.040;2022-12-19T14:05:42;-9386.44;;;5.23
74043;BMP280;62384;53.600;10.040;2022-12-19T14:08:08;-9391.31;;;5.42
74043;BMP280;62384;53.600;10.040;2022-12-19T14:10:42;-9394.19;;;5.53
74043;BMP280;62384;53.600;10.040;2022-12-19T14:13:15;-9395.50;;;5.58
74043;BMP280;62384;53.600;10.040;2022-12-19T14:16:00;-9393.94;;;5.52
74043;BMP280;62384;53.600;10.040;2022-12-19T14:18:29;-9395.66;;;5.58
74043;BMP280;62384;53.600;10.040;2022-12-19T14:21:23;-9398.00;;;5.68
74043;BMP280;62384;53.600;10.040;2022-12-19T14:24:12;-9398.94;;;5.71
74043;BMP280;62384;53.600;10.040;2022-12-19T14:26:38;-9399.06;;;5.72
74043;BMP280;62384;53.600;10.040;2022-12-19T14:29:08;-9400.66;;;5.78
74043;BMP280;62384;53.600;10.040;2022-12-19T14:31:40;-9400.38;;;5.77
74043;BMP280;62384;53.600;10.040;2022-12-19T14:34:14;-9401.69;;;5.82
74043;BMP280;62384;53.600;10.040;2022-12-19T14:36:53;-9403.78;;;5.90
74043;BMP280;62384;53.600;10.040;2022-12-19T14:39:27;-9406.03;;;5.98
74043;BMP280;62384;53.600;10.040;2022-12-19T14:42:02;-9410.09;;;6.14
74043;BMP280;62384;53.600;10.040;2022-12-19T14:47:31;-9409.59;;;6.12
74043;BMP280;62384;53.600;10.040;2022-12-19T14:49:59;-9421.16;;;6.56
74043;BMP280;62384;53.600;10.040;2022-12-19T14:53:04;-9424.56;;;6.69
74043;BMP280;62384;53.600;10.040;2022-12-19T14:55:32;-9426.56;;;6.77
74043;BMP280;62384;53.600;10.040;2022-12-19T14:58:05;-9428.53;;;6.85
74043;BMP280;62384;53.600;10.040;2022-12-19T15:00:43;-9429.19;;;6.87
74043;BMP280;62384;53.600;10.040;2022-12-19T15:03:16;-9422.22;;;6.60
74043;BMP280;62384;53.600;10.040;2022-12-19T15:05:43;-9428.53;;;6.85
74043;BMP280;62384;53.600;10.040;2022-12-19T15:08:09;-9428.91;;;6.86
74043;BMP280;62384;53.600;10.040;2022-12-19T15:10:36;-9429.97;;;6.90
74043;BMP280;62384;53.600;10.040;2022-12-19T15:15:52;-9433.25;;;7.03
74043;BMP280;62384;53.600;10.040;2022-12-19T15:18:28;-9436.56;;;7.15
74043;BMP280;62384;53.600;10.040;2022-12-19T15:21:03;-9436.28;;;7.14
74043;BMP280;62384;53.600;10.040;2022-12-19T15:23:30;-9437.06;;;7.17
74043;BMP280;62384;53.600;10.040;2022-12-19T15:25:59;-9437.06;;;7.17
74043;BMP280;62384;53.600;10.040;2022-12-19T15:31:02;-9436.81;;;7.16
74043;BMP280;62384;53.600;10.040;2022-12-19T15:33:29;-9434.44;;;7.07
74043;BMP280;62384;53.600;10.040;2022-12-19T15:35:54;-9434.44;;;7.07
74043;BMP280;62384;53.600;10.040;2022-12-19T15:38:20;-9435.09;;;7.10
74043;BMP280;62384;53.600;10.040;2022-12-19T15:40:46;-9435.09;;;7.10
74043;BMP280;62384;53.600;10.040;2022-12-19T15:43:20;-9433.25;;;7.03
74043;BMP280;62384;53.600;10.040;2022-12-19T15:45:49;-9437.88;;;7.20
74043;BMP280;62384;53.600;10.040;2022-12-19T15:48:16;-9435.75;;;7.12
74043;BMP280;62384;53.600;10.040;2022-12-19T15:50:42;-9435.38;;;7.11
74043;BMP280;62384;53.600;10.040;2022-12-19T15:53:34;-9434.84;;;7.09
74043;BMP280;62384;53.600;10.040;2022-12-19T15:56:00;-9436.69;;;7.16
74043;BMP280;62384;53.600;10.040;2022-12-19T15:58:26;-9435.75;;;7.12
74043;BMP280;62384;53.600;10.040;2022-12-19T16:00:57;-9437.06;;;7.17
74043;BMP280;62384;53.600;10.040;2022-12-19T16:03:24;-9435.75;;;7.12
74043;BMP280;62384;53.600;10.040;2022-12-19T16:05:51;-9436.56;;;7.15